KPGV/PGV METAR and TAF weather

Enter ICAO airport designator
Station Type Date Time Source
KPGV METAR 2022/01/19 19:15 UTC NOAA

KPGV 191915Z AUTO 23009KT 10SM CLR 15/M05 A3019 RMK AO2


Station Type Date Time Source
KPGV Decoded METAR 2022/01/19 19:15 UTC NOAA

Pitt-Greenville Airport, NC, United States (KPGV) 35-38N 077-24W
Jan 19, 2022 - 02:15 PM EST / 2022.01.19 1915 UTC
Wind: from the SW (230 degrees) at 10 MPH (9 KT):0
Visibility: 10 mile(s):0
Sky conditions: clear
Temperature: 59 F (15 C)
Dew Point: 23 F (-5 C)
Relative Humidity: 24%
Pressure (altimeter): 30.19 in. Hg (1022 hPa)
ob: KPGV 191915Z AUTO 23009KT 10SM CLR 15/M05 A3019 RMK AO2
cycle: 19

Station Type Date Time Source
KPGV TAF 2022/01/19 18:51 UTC NOAA

TAF KPGV 191744Z 1918/2018 22009G17KT P6SM FEW200
FM192200 21007KT P6SM FEW200
FM201600 25006KT P6SM BKN120
AMD LTD TO CLD VIS AND WIND

Example: see airport list